LW4 YSDU-YMER
Flight info
| Callsign | LW4 |
|---|---|
| Flight time | N/A |
| Altitude | 20000 |
| Route | DU W638 PKS/N0267F190 W703 CWR/N0291F270 DCT CB DCT MER |
| Aircraft | B60T/L-SDFGRY/C |
Departure
| Time | 2026-04-22 09:00 |
|---|---|
| Airport | Dubbo City Regional Airport (YSDU) |
Arrival
| Time | N/A |
|---|---|
| Airport | Merimbula Airport (YMER) |
| Time | Latitude | Longitude | Altitude | Speed | Heading |
|---|---|---|---|---|---|
| 2026-04-22 08:46 | -32.22266 | 148.56912 | 907 ft | 0 kts | 53° |
| 2026-04-22 08:46 | -32.22031 | 148.57167 | 913 ft | 378 kts | 53° |
| 2026-04-22 08:46 | -32.21984 | 148.57175 | 913 ft | 0 kts | 140° |
| 2026-04-22 08:59 | -32.22035 | 148.57249 | 914 ft | 24 kts | 83° |
| 2026-04-22 08:59 | -32.21871 | 148.57543 | 916 ft | 81 kts | 52° |
| 2026-04-22 09:00 | -32.21391 | 148.58295 | 1180 ft | 128 kts | 53° |
| 2026-04-22 09:00 | -32.20798 | 148.59052 | 1904 ft | 134 kts | 41° |
| 2026-04-22 09:00 | -32.19949 | 148.59628 | 2469 ft | 144 kts | 26° |
| 2026-04-22 09:00 | -32.18883 | 148.59559 | 2849 ft | 177 kts | 337° |
| 2026-04-22 09:01 | -32.18054 | 148.58317 | 2738 ft | 215 kts | 291° |
| 2026-04-22 09:01 | -32.17528 | 148.56612 | 2703 ft | 221 kts | 283° |
| 2026-04-22 09:01 | -32.17626 | 148.54910 | 3234 ft | 203 kts | 244° |
| 2026-04-22 09:01 | -32.18498 | 148.53708 | 3730 ft | 189 kts | 211° |
| 2026-04-22 09:02 | -32.19585 | 148.52865 | 4203 ft | 185 kts | 207° |
| 2026-04-22 09:02 | -32.20745 | 148.52321 | 4663 ft | 176 kts | 177° |
| 2026-04-22 09:02 | -32.21844 | 148.52755 | 5117 ft | 166 kts | 135° |
| 2026-04-22 09:02 | -32.22488 | 148.53854 | 5570 ft | 163 kts | 114° |
| 2026-04-22 09:03 | -32.23248 | 148.54798 | 6006 ft | 169 kts | 154° |
| 2026-04-22 09:03 | -32.24427 | 148.54877 | 6457 ft | 176 kts | 187° |
| 2026-04-22 09:03 | -32.25617 | 148.54502 | 6907 ft | 177 kts | 192° |
| 2026-04-22 09:03 | -32.26806 | 148.54106 | 7335 ft | 178 kts | 191° |
| 2026-04-22 09:04 | -32.28007 | 148.53716 | 7767 ft | 180 kts | 191° |
| 2026-04-22 09:04 | -32.29221 | 148.53309 | 8216 ft | 186 kts | 192° |
| 2026-04-22 09:04 | -32.30497 | 148.52865 | 8730 ft | 195 kts | 193° |
| 2026-04-22 09:04 | -32.31815 | 148.52398 | 9283 ft | 200 kts | 193° |
| 2026-04-22 09:05 | -32.33154 | 148.51928 | 9852 ft | 202 kts | 193° |
| 2026-04-22 09:05 | -32.34507 | 148.51457 | 10391 ft | 203 kts | 193° |
| 2026-04-22 09:05 | -32.35887 | 148.50979 | 10735 ft | 214 kts | 193° |
| 2026-04-22 09:05 | -32.37363 | 148.50461 | 10936 ft | 228 kts | 193° |
| 2026-04-22 09:06 | -32.38900 | 148.49914 | 11173 ft | 232 kts | 193° |
| 2026-04-22 09:06 | -32.40454 | 148.49366 | 11409 ft | 234 kts | 193° |
| 2026-04-22 09:06 | -32.42018 | 148.48825 | 11644 ft | 234 kts | 193° |
| 2026-04-22 09:06 | -32.43586 | 148.48284 | 11876 ft | 235 kts | 193° |
| 2026-04-22 09:07 | -32.45154 | 148.47739 | 12099 ft | 235 kts | 193° |
| 2026-04-22 09:07 | -32.46703 | 148.47195 | 12319 ft | 236 kts | 193° |
| 2026-04-22 09:07 | -32.48275 | 148.46643 | 12552 ft | 236 kts | 193° |
| 2026-04-22 09:07 | -32.49850 | 148.46086 | 12786 ft | 236 kts | 193° |
| 2026-04-22 09:08 | -32.51425 | 148.45532 | 13009 ft | 236 kts | 192° |
| 2026-04-22 09:08 | -32.53001 | 148.44980 | 13239 ft | 236 kts | 192° |
| 2026-04-22 09:08 | -32.54578 | 148.44431 | 13471 ft | 236 kts | 192° |
| 2026-04-22 09:08 | -32.56152 | 148.43880 | 13709 ft | 236 kts | 192° |
| 2026-04-22 09:09 | -32.57730 | 148.43324 | 13949 ft | 236 kts | 192° |
| 2026-04-22 09:09 | -32.59303 | 148.42769 | 14174 ft | 236 kts | 192° |
| 2026-04-22 09:09 | -32.60875 | 148.42216 | 14377 ft | 236 kts | 192° |
| 2026-04-22 09:09 | -32.62447 | 148.41665 | 14585 ft | 235 kts | 192° |
| 2026-04-22 09:10 | -32.64016 | 148.41116 | 14782 ft | 235 kts | 192° |
| 2026-04-22 09:10 | -32.65582 | 148.40564 | 14994 ft | 235 kts | 192° |
| 2026-04-22 09:10 | -32.67144 | 148.40013 | 15197 ft | 234 kts | 192° |
| 2026-04-22 09:10 | -32.68173 | 148.39650 | 15334 ft | 233 kts | 192° |
| 2026-04-22 09:11 | -32.69720 | 148.39105 | 15538 ft | 231 kts | 192° |
| 2026-04-22 09:11 | -32.71259 | 148.38564 | 15725 ft | 230 kts | 192° |
| 2026-04-22 09:11 | -32.72793 | 148.38023 | 15921 ft | 230 kts | 192° |
| 2026-04-22 09:11 | -32.74321 | 148.37484 | 16118 ft | 229 kts | 192° |
| 2026-04-22 09:12 | -32.75847 | 148.36945 | 16317 ft | 228 kts | 193° |
| 2026-04-22 09:12 | -32.77368 | 148.36407 | 16500 ft | 228 kts | 193° |
| 2026-04-22 09:12 | -32.78885 | 148.35872 | 16688 ft | 227 kts | 192° |
| 2026-04-22 09:12 | -32.80400 | 148.35338 | 16875 ft | 227 kts | 193° |
| 2026-04-22 09:13 | -32.81913 | 148.34804 | 17074 ft | 227 kts | 193° |
| 2026-04-22 09:13 | -32.83423 | 148.34270 | 17257 ft | 226 kts | 193° |
| 2026-04-22 09:13 | -32.84930 | 148.33737 | 17434 ft | 226 kts | 193° |
| 2026-04-22 09:13 | -32.86434 | 148.33204 | 17610 ft | 226 kts | 193° |
| 2026-04-22 09:14 | -32.87937 | 148.32670 | 17794 ft | 225 kts | 193° |
| 2026-04-22 09:14 | -32.89439 | 148.32140 | 17975 ft | 225 kts | 193° |
| 2026-04-22 09:14 | -32.90937 | 148.31612 | 18156 ft | 225 kts | 193° |
| 2026-04-22 09:14 | -32.92440 | 148.31080 | 18335 ft | 225 kts | 193° |
| 2026-04-22 09:15 | -32.93940 | 148.30547 | 18515 ft | 225 kts | 193° |
| 2026-04-22 09:15 | -32.95438 | 148.30015 | 18680 ft | 225 kts | 193° |
| 2026-04-22 09:15 | -32.96935 | 148.29485 | 18835 ft | 224 kts | 193° |
| 2026-04-22 09:15 | -32.98430 | 148.28956 | 18990 ft | 224 kts | 193° |
| 2026-04-22 09:16 | -32.99925 | 148.28427 | 19143 ft | 224 kts | 193° |
| 2026-04-22 09:16 | -33.01419 | 148.27895 | 19297 ft | 224 kts | 193° |
| 2026-04-22 09:16 | -33.02911 | 148.27365 | 19453 ft | 224 kts | 193° |
| 2026-04-22 09:16 | -33.04404 | 148.26835 | 19601 ft | 224 kts | 193° |
| 2026-04-22 09:17 | -33.05895 | 148.26305 | 19751 ft | 224 kts | 193° |
| 2026-04-22 09:17 | -33.07387 | 148.25775 | 19900 ft | 224 kts | 194° |
| 2026-04-22 09:17 | -33.08882 | 148.25243 | 19993 ft | 226 kts | 194° |
| 2026-04-22 09:17 | -33.10408 | 148.24700 | 19998 ft | 231 kts | 194° |
| 2026-04-22 09:18 | -33.11967 | 148.24185 | 19993 ft | 233 kts | 186° |
| 2026-04-22 09:18 | -33.13572 | 148.24244 | 20012 ft | 232 kts | 168° |
| 2026-04-22 09:18 | -33.15093 | 148.24865 | 20013 ft | 232 kts | 152° |
| 2026-04-22 09:18 | -33.16515 | 148.25799 | 20003 ft | 234 kts | 152° |
| 2026-04-22 09:19 | -33.17984 | 148.26635 | 20013 ft | 234 kts | 156° |
| 2026-04-22 09:19 | -33.19483 | 148.27410 | 19957 ft | 237 kts | 156° |
| 2026-04-22 09:19 | -33.20997 | 148.28237 | 19799 ft | 243 kts | 154° |
| 2026-04-22 09:19 | -33.22529 | 148.29136 | 19586 ft | 247 kts | 153° |
| 2026-04-22 09:20 | -33.24003 | 148.30021 | 20101 ft | 216 kts | 153° |
| 2026-04-22 09:20 | -33.25246 | 148.30741 | 20993 ft | 185 kts | 155° |
| 2026-04-22 09:20 | -33.26407 | 148.31405 | 21281 ft | 191 kts | 155° |
| 2026-04-22 09:20 | -33.27651 | 148.32130 | 21287 ft | 206 kts | 154° |
| 2026-04-22 09:21 | -33.28972 | 148.32903 | 21302 ft | 216 kts | 154° |
| 2026-04-22 09:21 | -33.30346 | 148.33702 | 21307 ft | 223 kts | 155° |
| 2026-04-22 09:21 | -33.31760 | 148.34520 | 21304 ft | 228 kts | 155° |
| 2026-04-22 09:21 | -33.33180 | 148.35342 | 21297 ft | 225 kts | 155° |
| 2026-04-22 09:22 | -33.34610 | 148.36169 | 21306 ft | 231 kts | 155° |
| 2026-04-22 09:22 | -33.36050 | 148.37005 | 21308 ft | 235 kts | 154° |
| 2026-04-22 09:22 | -33.37523 | 148.37865 | 21302 ft | 237 kts | 154° |
| 2026-04-22 09:22 | -33.38966 | 148.38767 | 21625 ft | 221 kts | 151° |
| 2026-04-22 09:23 | -33.40246 | 148.39562 | 22425 ft | 196 kts | 156° |
| 2026-04-22 09:23 | -33.41448 | 148.40198 | 23057 ft | 182 kts | 158° |
| 2026-04-22 09:23 | -33.42579 | 148.40803 | 23595 ft | 174 kts | 157° |
| 2026-04-22 09:23 | -33.43658 | 148.41420 | 24045 ft | 169 kts | 156° |
| 2026-04-22 09:24 | -33.44704 | 148.42039 | 24416 ft | 166 kts | 156° |
| 2026-04-22 09:24 | -33.45733 | 148.42644 | 24770 ft | 164 kts | 157° |
| 2026-04-22 09:24 | -33.46752 | 148.43238 | 25113 ft | 162 kts | 158° |
| 2026-04-22 09:24 | -33.47832 | 148.43862 | 24918 ft | 193 kts | 158° |
| 2026-04-22 09:25 | -33.49238 | 148.44670 | 23790 ft | 253 kts | 156° |
| 2026-04-22 09:25 | -33.50943 | 148.45671 | 22325 ft | 290 kts | 155° |
| 2026-04-22 09:25 | -33.52808 | 148.46774 | 21373 ft | 299 kts | 154° |
| 2026-04-22 09:25 | -33.54612 | 148.47831 | 21323 ft | 278 kts | 154° |
| 2026-04-22 09:26 | -33.56301 | 148.48809 | 21314 ft | 259 kts | 155° |
| 2026-04-22 09:26 | -33.57872 | 148.49710 | 21300 ft | 241 kts | 155° |
| 2026-04-22 09:26 | -33.59272 | 148.50523 | 21286 ft | 205 kts | 155° |
| 2026-04-22 09:26 | -33.60450 | 148.51217 | 21276 ft | 175 kts | 155° |
| 2026-04-22 09:27 | -33.61518 | 148.51846 | 21285 ft | 168 kts | 155° |
| 2026-04-22 09:27 | -33.62580 | 148.52466 | 21302 ft | 176 kts | 155° |
| 2026-04-22 09:27 | -33.63695 | 148.53122 | 21296 ft | 179 kts | 154° |
| 2026-04-22 09:27 | -33.64804 | 148.53779 | 21300 ft | 177 kts | 154° |
| 2026-04-22 09:28 | -33.65906 | 148.54424 | 21300 ft | 176 kts | 155° |
| 2026-04-22 09:28 | -33.67005 | 148.55063 | 21299 ft | 173 kts | 155° |
| 2026-04-22 09:28 | -33.68029 | 148.55663 | 21289 ft | 153 kts | 155° |
| 2026-04-22 09:28 | -33.68937 | 148.56198 | 21282 ft | 139 kts | 154° |
| 2026-04-22 09:29 | -33.69768 | 148.56690 | 21263 ft | 123 kts | 155° |
| 2026-04-22 09:29 | -33.70502 | 148.57110 | 20934 ft | 115 kts | 155° |
| 2026-04-22 09:29 | -33.71224 | 148.57527 | 20422 ft | 113 kts | 154° |
| 2026-04-22 09:29 | -33.71877 | 148.57912 | 19972 ft | 105 kts | 153° |